sensor_id;sensor_type;location;lat;lon;timestamp;pressure;altitude;pressure_sealevel;temperature;humidity
10606;BME280;5350;42.698;23.148;2023-07-13T00:02:15;93913.16;;;22.66;62.65
10606;BME280;5350;42.698;23.148;2023-07-13T00:04:41;93918.13;;;22.68;61.52
10606;BME280;5350;42.698;23.148;2023-07-13T00:07:09;93917.06;;;22.72;61.29
10606;BME280;5350;42.698;23.148;2023-07-13T00:09:39;93915.59;;;22.75;61.83
10606;BME280;5350;42.698;23.148;2023-07-13T00:12:22;93917.50;;;22.74;62.04
10606;BME280;5350;42.698;23.148;2023-07-13T00:14:49;93910.66;;;22.77;63.46
10606;BME280;5350;42.698;23.148;2023-07-13T00:17:16;93909.34;;;22.67;64.39
10606;BME280;5350;42.698;23.148;2023-07-13T00:19:43;93905.63;;;22.53;70.93
10606;BME280;5350;42.698;23.148;2023-07-13T00:22:11;93904.84;;;22.52;68.98
10606;BME280;5350;42.698;23.148;2023-07-13T00:24:38;93903.25;;;22.51;68.29
10606;BME280;5350;42.698;23.148;2023-07-13T00:27:07;93899.94;;;22.58;67.92
10606;BME280;5350;42.698;23.148;2023-07-13T00:29:34;93894.38;;;22.47;69.48
10606;BME280;5350;42.698;23.148;2023-07-13T00:32:02;93888.50;;;22.38;67.48
10606;BME280;5350;42.698;23.148;2023-07-13T00:34:28;93897.38;;;22.42;66.32
10606;BME280;5350;42.698;23.148;2023-07-13T00:36:55;93896.69;;;22.26;66.73
10606;BME280;5350;42.698;23.148;2023-07-13T00:39:24;93897.28;;;22.39;68.37
10606;BME280;5350;42.698;23.148;2023-07-13T00:41:50;93884.38;;;22.21;66.77
10606;BME280;5350;42.698;23.148;2023-07-13T00:44:19;93878.94;;;21.99;70.75
10606;BME280;5350;42.698;23.148;2023-07-13T00:46:46;93888.38;;;22.12;69.51
10606;BME280;5350;42.698;23.148;2023-07-13T00:49:17;93887.41;;;22.01;70.62
10606;BME280;5350;42.698;23.148;2023-07-13T00:51:48;93884.88;;;21.89;69.61
10606;BME280;5350;42.698;23.148;2023-07-13T00:54:18;93889.44;;;21.88;69.15
10606;BME280;5350;42.698;23.148;2023-07-13T00:56:49;93883.19;;;22.00;67.61
10606;BME280;5350;42.698;23.148;2023-07-13T00:59:18;93882.28;;;21.92;67.94
10606;BME280;5350;42.698;23.148;2023-07-13T01:01:45;93890.66;;;22.10;67.67
10606;BME280;5350;42.698;23.148;2023-07-13T01:04:12;93890.44;;;21.99;69.80
10606;BME280;5350;42.698;23.148;2023-07-13T01:06:40;93883.66;;;22.05;71.95
10606;BME280;5350;42.698;23.148;2023-07-13T01:09:10;93869.63;;;21.74;73.50
10606;BME280;5350;42.698;23.148;2023-07-13T01:11:37;93891.06;;;21.93;69.40
10606;BME280;5350;42.698;23.148;2023-07-13T01:14:05;93895.72;;;21.96;67.79
10606;BME280;5350;42.698;23.148;2023-07-13T01:16:33;93897.69;;;21.99;70.03
10606;BME280;5350;42.698;23.148;2023-07-13T01:19:01;93881.34;;;22.04;68.48
10606;BME280;5350;42.698;23.148;2023-07-13T01:21:33;93895.00;;;21.99;68.62
10606;BME280;5350;42.698;23.148;2023-07-13T01:24:00;93882.03;;;22.01;69.63
10606;BME280;5350;42.698;23.148;2023-07-13T01:26:27;93882.47;;;22.03;67.01
10606;BME280;5350;42.698;23.148;2023-07-13T01:28:54;93876.78;;;22.04;69.03
10606;BME280;5350;42.698;23.148;2023-07-13T01:31:22;93877.00;;;21.96;69.25
10606;BME280;5350;42.698;23.148;2023-07-13T01:33:49;93878.88;;;21.95;70.33
10606;BME280;5350;42.698;23.148;2023-07-13T01:36:15;93873.59;;;21.80;71.36
10606;BME280;5350;42.698;23.148;2023-07-13T01:38:43;93877.13;;;21.84;72.13
10606;BME280;5350;42.698;23.148;2023-07-13T01:41:11;93886.34;;;21.86;73.93
10606;BME280;5350;42.698;23.148;2023-07-13T01:43:38;93872.44;;;21.81;72.64
10606;BME280;5350;42.698;23.148;2023-07-13T01:46:04;93875.56;;;21.83;71.39
10606;BME280;5350;42.698;23.148;2023-07-13T01:48:31;93877.53;;;21.67;71.42
10606;BME280;5350;42.698;23.148;2023-07-13T01:50:58;93868.44;;;21.71;72.52
10606;BME280;5350;42.698;23.148;2023-07-13T01:53:25;93869.06;;;21.65;73.84
10606;BME280;5350;42.698;23.148;2023-07-13T01:55:53;93874.13;;;21.51;75.71
10606;BME280;5350;42.698;23.148;2023-07-13T01:58:20;93864.66;;;21.37;74.11
10606;BME280;5350;42.698;23.148;2023-07-13T02:00:48;93863.47;;;21.35;74.13
10606;BME280;5350;42.698;23.148;2023-07-13T02:03:15;93875.38;;;21.37;75.05
10606;BME280;5350;42.698;23.148;2023-07-13T02:05:43;93872.75;;;21.41;74.98
10606;BME280;5350;42.698;23.148;2023-07-13T02:08:10;93874.81;;;21.47;72.75
10606;BME280;5350;42.698;23.148;2023-07-13T02:10:37;93877.50;;;21.47;74.25
10606;BME280;5350;42.698;23.148;2023-07-13T02:13:06;93874.66;;;21.40;74.60
10606;BME280;5350;42.698;23.148;2023-07-13T02:15:33;93874.81;;;21.47;76.29
10606;BME280;5350;42.698;23.148;2023-07-13T02:17:59;93883.78;;;21.20;77.40
10606;BME280;5350;42.698;23.148;2023-07-13T02:20:26;93874.91;;;21.16;78.01
10606;BME280;5350;42.698;23.148;2023-07-13T02:22:53;93873.88;;;21.05;78.73
10606;BME280;5350;42.698;23.148;2023-07-13T02:25:19;93881.38;;;21.00;78.68
10606;BME280;5350;42.698;23.148;2023-07-13T02:27:46;93878.34;;;21.01;77.81
10606;BME280;5350;42.698;23.148;2023-07-13T02:30:14;93885.84;;;21.11;80.10
10606;BME280;5350;42.698;23.148;2023-07-13T02:32:41;93880.16;;;20.97;79.32
10606;BME280;5350;42.698;23.148;2023-07-13T02:35:09;93888.72;;;20.87;82.68
10606;BME280;5350;42.698;23.148;2023-07-13T02:37:36;93888.03;;;20.90;83.25
10606;BME280;5350;42.698;23.148;2023-07-13T02:40:03;93889.91;;;20.74;85.35
10606;BME280;5350;42.698;23.148;2023-07-13T02:42:33;93898.28;;;20.73;86.14
10606;BME280;5350;42.698;23.148;2023-07-13T02:45:00;93889.41;;;20.68;86.38
10606;BME280;5350;42.698;23.148;2023-07-13T02:47:28;93903.56;;;20.69;87.00
10606;BME280;5350;42.698;23.148;2023-07-13T02:49:55;93904.56;;;20.49;89.22
10606;BME280;5350;42.698;23.148;2023-07-13T02:52:21;93898.53;;;20.52;89.02
10606;BME280;5350;42.698;23.148;2023-07-13T02:54:48;93908.44;;;20.51;90.71
10606;BME280;5350;42.698;23.148;2023-07-13T02:57:15;93901.47;;;20.47;91.70
10606;BME280;5350;42.698;23.148;2023-07-13T02:59:41;93910.16;;;20.44;91.75
10606;BME280;5350;42.698;23.148;2023-07-13T03:02:08;93907.66;;;20.51;91.67
10606;BME280;5350;42.698;23.148;2023-07-13T03:04:36;93902.16;;;20.44;92.59
10606;BME280;5350;42.698;23.148;2023-07-13T03:07:05;93907.63;;;20.20;95.01
10606;BME280;5350;42.698;23.148;2023-07-13T03:09:33;93904.94;;;20.20;94.95
10606;BME280;5350;42.698;23.148;2023-07-13T03:12:00;93902.28;;;20.20;94.82
10606;BME280;5350;42.698;23.148;2023-07-13T03:14:27;93908.59;;;20.15;96.29
10606;BME280;5350;42.698;23.148;2023-07-13T03:16:54;93903.69;;;20.17;96.30
10606;BME280;5350;42.698;23.148;2023-07-13T03:19:20;93897.41;;;20.10;97.95
10606;BME280;5350;42.698;23.148;2023-07-13T03:21:48;93902.16;;;19.88;100.00
10606;BME280;5350;42.698;23.148;2023-07-13T03:24:15;93894.69;;;19.94;99.61
10606;BME280;5350;42.698;23.148;2023-07-13T03:26:42;93908.00;;;20.06;99.93
10606;BME280;5350;42.698;23.148;2023-07-13T03:29:08;93908.88;;;20.10;99.68
10606;BME280;5350;42.698;23.148;2023-07-13T03:31:38;93912.75;;;20.13;100.00
10606;BME280;5350;42.698;23.148;2023-07-13T03:34:05;93918.25;;;20.04;100.00
10606;BME280;5350;42.698;23.148;2023-07-13T03:36:32;93903.03;;;19.92;100.00
10606;BME280;5350;42.698;23.148;2023-07-13T03:39:02;93915.75;;;20.11;100.00
10606;BME280;5350;42.698;23.148;2023-07-13T03:41:29;93919.72;;;20.17;100.00
10606;BME280;5350;42.698;23.148;2023-07-13T03:43:57;93916.28;;;20.17;100.00
10606;BME280;5350;42.698;23.148;2023-07-13T03:46:23;93928.06;;;20.28;100.00
10606;BME280;5350;42.698;23.148;2023-07-13T03:48:50;93912.38;;;20.26;100.00
10606;BME280;5350;42.698;23.148;2023-07-13T03:51:18;93913.38;;;20.22;100.00
10606;BME280;5350;42.698;23.148;2023-07-13T03:53:46;93916.19;;;20.25;100.00
10606;BME280;5350;42.698;23.148;2023-07-13T03:56:15;93915.66;;;20.35;100.00
10606;BME280;5350;42.698;23.148;2023-07-13T03:58:44;93907.94;;;20.46;100.00
10606;BME280;5350;42.698;23.148;2023-07-13T04:01:13;93904.47;;;20.45;100.00
10606;BME280;5350;42.698;23.148;2023-07-13T04:03:41;93909.16;;;20.48;100.00
10606;BME280;5350;42.698;23.148;2023-07-13T04:06:14;93902.00;;;20.52;100.00
10606;BME280;5350;42.698;23.148;2023-07-13T04:08:47;93914.94;;;20.66;100.00
10606;BME280;5350;42.698;23.148;2023-07-13T04:11:15;93911.72;;;20.76;100.00
10606;BME280;5350;42.698;23.148;2023-07-13T04:13:42;93913.19;;;20.89;99.96
10606;BME280;5350;42.698;23.148;2023-07-13T04:16:09;93912.59;;;20.96;100.00
10606;BME280;5350;42.698;23.148;2023-07-13T04:18:36;93909.66;;;21.01;100.00
10606;BME280;5350;42.698;23.148;2023-07-13T04:21:03;93924.69;;;21.21;99.70
10606;BME280;5350;42.698;23.148;2023-07-13T04:23:29;93928.66;;;21.27;100.00
10606;BME280;5350;42.698;23.148;2023-07-13T04:25:56;93904.50;;;21.23;100.00
10606;BME280;5350;42.698;23.148;2023-07-13T04:28:25;93922.13;;;21.43;100.00
10606;BME280;5350;42.698;23.148;2023-07-13T04:30:52;93917.38;;;21.53;100.00
10606;BME280;5350;42.698;23.148;2023-07-13T04:33:19;93931.47;;;21.69;99.07
10606;BME280;5350;42.698;23.148;2023-07-13T04:35:47;93937.16;;;21.83;98.77
10606;BME280;5350;42.698;23.148;2023-07-13T04:38:14;93933.59;;;21.94;98.19
10606;BME280;5350;42.698;23.148;2023-07-13T04:40:42;93939.59;;;22.07;97.34
10606;BME280;5350;42.698;23.148;2023-07-13T04:43:09;93943.66;;;22.20;95.73
10606;BME280;5350;42.698;23.148;2023-07-13T04:45:37;93941.47;;;22.25;94.89
10606;BME280;5350;42.698;23.148;2023-07-13T04:48:04;93954.72;;;22.38;97.13
10606;BME280;5350;42.698;23.148;2023-07-13T04:50:31;93952.25;;;22.48;96.04
10606;BME280;5350;42.698;23.148;2023-07-13T04:52:58;93957.06;;;22.58;95.12
10606;BME280;5350;42.698;23.148;2023-07-13T04:55:25;93957.53;;;22.64;94.00
10606;BME280;5350;42.698;23.148;2023-07-13T04:57:56;93952.06;;;22.79;91.32
10606;BME280;5350;42.698;23.148;2023-07-13T05:00:24;93951.94;;;22.95;90.71
10606;BME280;5350;42.698;23.148;2023-07-13T05:02:54;93956.66;;;23.01;89.54
10606;BME280;5350;42.698;23.148;2023-07-13T05:05:20;93948.00;;;23.12;89.57
10606;BME280;5350;42.698;23.148;2023-07-13T05:07:47;93950.09;;;23.22;88.53
10606;BME280;5350;42.698;23.148;2023-07-13T05:10:14;93964.81;;;23.31;86.57
10606;BME280;5350;42.698;23.148;2023-07-13T05:12:41;93953.19;;;23.46;83.37
10606;BME280;5350;42.698;23.148;2023-07-13T05:15:08;93950.56;;;23.27;82.51
10606;BME280;5350;42.698;23.148;2023-07-13T05:17:34;93964.25;;;23.67;81.40
10606;BME280;5350;42.698;23.148;2023-07-13T05:20:03;93954.78;;;23.77;80.17
10606;BME280;5350;42.698;23.148;2023-07-13T05:22:31;93956.88;;;23.91;79.44
10606;BME280;5350;42.698;23.148;2023-07-13T05:24:57;93964.78;;;24.06;78.19
10606;BME280;5350;42.698;23.148;2023-07-13T05:27:24;93956.16;;;24.23;79.22
10606;BME280;5350;42.698;23.148;2023-07-13T05:29:51;93958.84;;;24.23;78.92
10606;BME280;5350;42.698;23.148;2023-07-13T05:32:18;93951.63;;;24.31;79.53
10606;BME280;5350;42.698;23.148;2023-07-13T05:34:45;93957.94;;;24.45;78.11
10606;BME280;5350;42.698;23.148;2023-07-13T05:37:13;93964.25;;;24.60;79.64
10606;BME280;5350;42.698;23.148;2023-07-13T05:39:39;93960.56;;;24.72;77.79
10606;BME280;5350;42.698;23.148;2023-07-13T05:42:07;93960.72;;;24.86;77.42
10606;BME280;5350;42.698;23.148;2023-07-13T05:44:33;93971.97;;;24.98;77.59
10606;BME280;5350;42.698;23.148;2023-07-13T05:47:00;93973.63;;;25.10;77.78
10606;BME280;5350;42.698;23.148;2023-07-13T05:49:27;93973.22;;;25.08;78.26
10606;BME280;5350;42.698;23.148;2023-07-13T05:51:57;93953.06;;;25.35;78.78
10606;BME280;5350;42.698;23.148;2023-07-13T05:54:25;93953.56;;;25.44;77.76
10606;BME280;5350;42.698;23.148;2023-07-13T05:56:53;93914.69;;;25.42;79.99
10606;BME280;5350;42.698;23.148;2023-07-13T05:59:22;93922.47;;;25.57;80.70
10606;BME280;5350;42.698;23.148;2023-07-13T06:01:50;93938.41;;;25.87;79.29
10606;BME280;5350;42.698;23.148;2023-07-13T06:04:18;93961.31;;;26.14;77.56
10606;BME280;5350;42.698;23.148;2023-07-13T06:06:47;93929.34;;;26.16;77.29
10606;BME280;5350;42.698;23.148;2023-07-13T06:09:18;93911.59;;;26.08;76.54
10606;BME280;5350;42.698;23.148;2023-07-13T06:11:48;93924.00;;;26.27;79.02
10606;BME280;5350;42.698;23.148;2023-07-13T06:14:14;93954.88;;;26.40;76.30
10606;BME280;5350;42.698;23.148;2023-07-13T06:16:43;93930.56;;;26.26;76.17
10606;BME280;5350;42.698;23.148;2023-07-13T06:19:13;93936.34;;;26.28;77.88
10606;BME280;5350;42.698;23.148;2023-07-13T06:21:43;93950.16;;;26.19;76.93
10606;BME280;5350;42.698;23.148;2023-07-13T06:24:11;93974.22;;;26.63;75.57
10606;BME280;5350;42.698;23.148;2023-07-13T06:26:39;93980.06;;;26.79;74.45
10606;BME280;5350;42.698;23.148;2023-07-13T06:29:09;93924.09;;;26.55;74.66
10606;BME280;5350;42.698;23.148;2023-07-13T06:31:41;93994.03;;;27.09;72.02
10606;BME280;5350;42.698;23.148;2023-07-13T06:34:10;93929.59;;;26.86;74.28
10606;BME280;5350;42.698;23.148;2023-07-13T06:36:40;93944.66;;;27.05;74.25
10606;BME280;5350;42.698;23.148;2023-07-13T06:39:09;93958.19;;;27.26;73.70
10606;BME280;5350;42.698;23.148;2023-07-13T06:41:38;93935.00;;;27.18;71.43
10606;BME280;5350;42.698;23.148;2023-07-13T06:44:10;93908.78;;;27.15;72.43
10606;BME280;5350;42.698;23.148;2023-07-13T06:46:39;93955.09;;;27.49;71.58
10606;BME280;5350;42.698;23.148;2023-07-13T06:49:10;93930.41;;;27.50;72.36
10606;BME280;5350;42.698;23.148;2023-07-13T06:51:38;93954.69;;;27.79;73.19
10606;BME280;5350;42.698;23.148;2023-07-13T06:54:07;93912.25;;;27.61;72.37
10606;BME280;5350;42.698;23.148;2023-07-13T06:56:37;93958.09;;;28.11;70.98
10606;BME280;5350;42.698;23.148;2023-07-13T06:59:06;93958.06;;;28.25;67.13
10606;BME280;5350;42.698;23.148;2023-07-13T07:01:35;93966.88;;;28.39;66.28
10606;BME280;5350;42.698;23.148;2023-07-13T07:04:05;93954.22;;;28.26;70.80
10606;BME280;5350;42.698;23.148;2023-07-13T07:06:34;93933.69;;;28.32;66.03
10606;BME280;5350;42.698;23.148;2023-07-13T07:09:04;93957.56;;;28.58;67.43
10606;BME280;5350;42.698;23.148;2023-07-13T07:11:34;93917.78;;;28.44;65.50
10606;BME280;5350;42.698;23.148;2023-07-13T07:14:04;93933.91;;;28.76;65.56
10606;BME280;5350;42.698;23.148;2023-07-13T07:16:37;93976.69;;;28.99;62.99
10606;BME280;5350;42.698;23.148;2023-07-13T07:19:06;93942.94;;;29.10;62.50
10606;BME280;5350;42.698;23.148;2023-07-13T07:21:35;93949.78;;;29.33;63.56
10606;BME280;5350;42.698;23.148;2023-07-13T07:24:04;93963.50;;;29.59;62.74
10606;BME280;5350;42.698;23.148;2023-07-13T07:26:34;93940.31;;;29.55;61.65
10606;BME280;5350;42.698;23.148;2023-07-13T07:29:02;93951.09;;;29.62;59.69
10606;BME280;5350;42.698;23.148;2023-07-13T07:31:30;93949.44;;;29.71;59.03
10606;BME280;5350;42.698;23.148;2023-07-13T07:34:00;93958.03;;;30.07;55.75
10606;BME280;5350;42.698;23.148;2023-07-13T07:36:28;93887.69;;;29.93;56.05
10606;BME280;5350;42.698;23.148;2023-07-13T07:39:00;93935.59;;;30.40;57.97
10606;BME280;5350;42.698;23.148;2023-07-13T07:41:41;93903.59;;;30.55;57.04
10606;BME280;5350;42.698;23.148;2023-07-13T07:44:09;93931.84;;;30.91;52.42
10606;BME280;5350;42.698;23.148;2023-07-13T07:46:38;93940.91;;;31.08;50.31
10606;BME280;5350;42.698;23.148;2023-07-13T07:49:09;93929.72;;;31.29;49.85
10606;BME280;5350;42.698;23.148;2023-07-13T07:51:38;93905.81;;;31.20;44.81
10606;BME280;5350;42.698;23.148;2023-07-13T07:54:08;93931.75;;;31.48;43.34
10606;BME280;5350;42.698;23.148;2023-07-13T07:56:53;93935.25;;;31.72;42.80
10606;BME280;5350;42.698;23.148;2023-07-13T07:59:24;93908.91;;;31.45;41.53
10606;BME280;5350;42.698;23.148;2023-07-13T08:01:52;93892.03;;;31.31;41.58
10606;BME280;5350;42.698;23.148;2023-07-13T08:04:24;93902.41;;;31.39;41.91
10606;BME280;5350;42.698;23.148;2023-07-13T08:07:11;93900.44;;;31.40;45.23
10606;BME280;5350;42.698;23.148;2023-07-13T08:09:40;93863.09;;;31.21;43.59
10606;BME280;5350;42.698;23.148;2023-07-13T08:12:09;93894.28;;;31.59;44.66
10606;BME280;5350;42.698;23.148;2023-07-13T08:14:38;93911.84;;;31.78;44.96
10606;BME280;5350;42.698;23.148;2023-07-13T08:17:09;93881.28;;;31.70;43.25
10606;BME280;5350;42.698;23.148;2023-07-13T08:20:09;93899.94;;;31.91;39.27
10606;BME280;5350;42.698;23.148;2023-07-13T08:22:54;93866.66;;;31.64;39.42
10606;BME280;5350;42.698;23.148;2023-07-13T08:25:22;93853.31;;;31.50;39.21
10606;BME280;5350;42.698;23.148;2023-07-13T08:27:52;93886.00;;;31.89;40.11
10606;BME280;5350;42.698;23.148;2023-07-13T08:30:21;93882.06;;;31.90;37.98
10606;BME280;5350;42.698;23.148;2023-07-13T08:32:55;93852.66;;;31.85;37.89
10606;BME280;5350;42.698;23.148;2023-07-13T08:35:35;93858.53;;;32.03;37.38
10606;BME280;5350;42.698;23.148;2023-07-13T08:38:19;93905.63;;;32.40;36.89
10606;BME280;5350;42.698;23.148;2023-07-13T08:40:50;93852.63;;;32.08;38.04
10606;BME280;5350;42.698;23.148;2023-07-13T08:43:27;93906.25;;;32.67;36.49
10606;BME280;5350;42.698;23.148;2023-07-13T08:46:05;93908.47;;;32.72;36.68
10606;BME280;5350;42.698;23.148;2023-07-13T08:48:41;93883.63;;;32.70;35.92
10606;BME280;5350;42.698;23.148;2023-07-13T08:51:31;93862.28;;;32.49;33.71
10606;BME280;5350;42.698;23.148;2023-07-13T08:54:05;93879.38;;;32.69;35.56
10606;BME280;5350;42.698;23.148;2023-07-13T08:56:38;93913.50;;;32.73;36.24
10606;BME280;5350;42.698;23.148;2023-07-13T08:59:32;93906.44;;;32.76;35.60
10606;BME280;5350;42.698;23.148;2023-07-13T09:02:18;93871.94;;;32.69;34.25
10606;BME280;5350;42.698;23.148;2023-07-13T09:04:52;93942.81;;;33.37;34.93
10606;BME280;5350;42.698;23.148;2023-07-13T09:07:32;93890.06;;;33.28;34.75
10606;BME280;5350;42.698;23.148;2023-07-13T09:10:13;93921.69;;;33.73;34.60
10606;BME280;5350;42.698;23.148;2023-07-13T09:13:20;93902.75;;;33.82;34.73
10606;BME280;5350;42.698;23.148;2023-07-13T09:15:52;93896.09;;;34.00;31.69
10606;BME280;5350;42.698;23.148;2023-07-13T09:18:27;93900.84;;;34.12;32.26
10606;BME280;5350;42.698;23.148;2023-07-13T09:21:11;93905.56;;;34.24;31.08
10606;BME280;5350;42.698;23.148;2023-07-13T09:23:44;93915.53;;;34.30;31.78
10606;BME280;5350;42.698;23.148;2023-07-13T09:29:26;93945.38;;;34.66;32.40
10606;BME280;5350;42.698;23.148;2023-07-13T09:32:02;93940.41;;;34.61;31.72
10606;BME280;5350;42.698;23.148;2023-07-13T09:34:49;93925.78;;;34.55;29.53
10606;BME280;5350;42.698;23.148;2023-07-13T09:37:20;93902.06;;;34.52;32.04
10606;BME280;5350;42.698;23.148;2023-07-13T09:39:55;93878.00;;;34.47;30.48
10606;BME280;5350;42.698;23.148;2023-07-13T09:42:42;93928.63;;;34.64;28.20
10606;BME280;5350;42.698;23.148;2023-07-13T09:45:27;93917.38;;;34.62;29.26
10606;BME280;5350;42.698;23.148;2023-07-13T09:48:03;93905.03;;;34.70;29.96
10606;BME280;5350;42.698;23.148;2023-07-13T09:50:35;93906.50;;;34.87;29.46
10606;BME280;5350;42.698;23.148;2023-07-13T09:53:09;93876.63;;;34.80;30.54
10606;BME280;5350;42.698;23.148;2023-07-13T09:55:54;93876.09;;;34.98;28.78
10606;BME280;5350;42.698;23.148;2023-07-13T09:58:29;93871.97;;;35.06;28.99
10606;BME280;5350;42.698;23.148;2023-07-13T10:01:01;93886.16;;;35.26;29.16
10606;BME280;5350;42.698;23.148;2023-07-13T10:03:33;93876.09;;;35.35;28.48
10606;BME280;5350;42.698;23.148;2023-07-13T10:06:13;93864.91;;;35.43;29.61
10606;BME280;5350;42.698;23.148;2023-07-13T10:08:45;93874.09;;;35.61;30.08
10606;BME280;5350;42.698;23.148;2023-07-13T10:11:29;93891.81;;;35.69;28.88
10606;BME280;5350;42.698;23.148;2023-07-13T10:14:11;93863.28;;;35.45;28.57
10606;BME280;5350;42.698;23.148;2023-07-13T10:17:01;93890.19;;;35.47;28.30
10606;BME280;5350;42.698;23.148;2023-07-13T10:19:34;93866.19;;;35.63;29.47
10606;BME280;5350;42.698;23.148;2023-07-13T10:22:12;93869.63;;;35.89;28.25
10606;BME280;5350;42.698;23.148;2023-07-13T10:24:44;93892.34;;;35.77;28.55
10606;BME280;5350;42.698;23.148;2023-07-13T10:27:16;93842.94;;;35.59;29.56
10606;BME280;5350;42.698;23.148;2023-07-13T10:29:55;93843.91;;;35.86;27.40
10606;BME280;5350;42.698;23.148;2023-07-13T10:32:32;93869.72;;;35.98;27.54
10606;BME280;5350;42.698;23.148;2023-07-13T10:35:01;93855.72;;;35.96;27.56
10606;BME280;5350;42.698;23.148;2023-07-13T10:37:34;93827.16;;;35.63;27.56
10606;BME280;5350;42.698;23.148;2023-07-13T10:40:18;93870.44;;;35.77;26.41
10606;BME280;5350;42.698;23.148;2023-07-13T10:42:56;93878.75;;;35.86;27.87
10606;BME280;5350;42.698;23.148;2023-07-13T10:45:41;93842.72;;;35.87;29.16
10606;BME280;5350;42.698;23.148;2023-07-13T10:48:13;93837.91;;;36.13;29.24
10606;BME280;5350;42.698;23.148;2023-07-13T10:50:46;93849.88;;;36.06;27.63
10606;BME280;5350;42.698;23.148;2023-07-13T10:53:19;93813.13;;;35.95;28.40
10606;BME280;5350;42.698;23.148;2023-07-13T10:56:10;93821.66;;;36.19;26.50
10606;BME280;5350;42.698;23.148;2023-07-13T11:01:56;93821.13;;;35.89;27.05
10606;BME280;5350;42.698;23.148;2023-07-13T11:04:40;93808.22;;;36.33;28.34
10606;BME280;5350;42.698;23.148;2023-07-13T11:07:18;93801.97;;;36.54;27.77
10606;BME280;5350;42.698;23.148;2023-07-13T11:09:51;93798.41;;;36.75;29.01
10606;BME280;5350;42.698;23.148;2023-07-13T11:12:52;93766.16;;;36.88;27.47
10606;BME280;5350;42.698;23.148;2023-07-13T11:15:44;93780.22;;;37.00;26.98
10606;BME280;5350;42.698;23.148;2023-07-13T11:18:24;93781.72;;;36.92;27.02
10606;BME280;5350;42.698;23.148;2023-07-13T11:20:56;93775.97;;;37.08;27.33
10606;BME280;5350;42.698;23.148;2023-07-13T11:23:51;93791.84;;;37.31;26.26
10606;BME280;5350;42.698;23.148;2023-07-13T11:26:40;93798.63;;;37.48;26.69
10606;BME280;5350;42.698;23.148;2023-07-13T11:29:20;93791.75;;;37.52;27.16
10606;BME280;5350;42.698;23.148;2023-07-13T11:31:55;93806.84;;;37.66;24.67
10606;BME280;5350;42.698;23.148;2023-07-13T11:34:30;93767.94;;;37.31;26.31
10606;BME280;5350;42.698;23.148;2023-07-13T11:40:12;93800.13;;;37.58;25.36
10606;BME280;5350;42.698;23.148;2023-07-13T11:42:50;93797.59;;;37.82;26.93
10606;BME280;5350;42.698;23.148;2023-07-13T11:45:22;93795.59;;;38.00;27.11
10606;BME280;5350;42.698;23.148;2023-07-13T11:48:19;93762.03;;;37.60;25.77
10606;BME280;5350;42.698;23.148;2023-07-13T11:50:55;93776.19;;;37.77;26.65
10606;BME280;5350;42.698;23.148;2023-07-13T11:53:43;93767.06;;;37.89;26.00
10606;BME280;5350;42.698;23.148;2023-07-13T11:56:14;93748.31;;;37.87;26.68
10606;BME280;5350;42.698;23.148;2023-07-13T11:59:05;93756.22;;;38.03;26.56
10606;BME280;5350;42.698;23.148;2023-07-13T12:01:40;93750.28;;;38.05;27.67
10606;BME280;5350;42.698;23.148;2023-07-13T12:04:19;93778.75;;;38.34;25.95
10606;BME280;5350;42.698;23.148;2023-07-13T12:07:35;93725.22;;;38.12;25.90
10606;BME280;5350;42.698;23.148;2023-07-13T12:10:33;93739.91;;;37.91;26.50
10606;BME280;5350;42.698;23.148;2023-07-13T12:13:13;93741.75;;;37.85;26.25
10606;BME280;5350;42.698;23.148;2023-07-13T12:15:43;93712.03;;;37.83;27.24
10606;BME280;5350;42.698;23.148;2023-07-13T12:18:33;93740.59;;;38.36;28.00
10606;BME280;5350;42.698;23.148;2023-07-13T12:21:14;93750.06;;;38.77;27.72
10606;BME280;5350;42.698;23.148;2023-07-13T12:24:03;93769.91;;;39.14;25.37
10606;BME280;5350;42.698;23.148;2023-07-13T12:26:59;93746.66;;;39.39;25.35
10606;BME280;5350;42.698;23.148;2023-07-13T12:29:34;93724.63;;;39.24;24.62
10606;BME280;5350;42.698;23.148;2023-07-13T12:32:09;93699.00;;;39.56;23.84
10606;BME280;5350;42.698;23.148;2023-07-13T12:35:15;93726.19;;;39.78;24.07
10606;BME280;5350;42.698;23.148;2023-07-13T12:37:43;93720.84;;;39.74;26.44
10606;BME280;5350;42.698;23.148;2023-07-13T12:43:04;93743.22;;;39.29;23.22
10606;BME280;5350;42.698;23.148;2023-07-13T12:45:32;93731.19;;;39.41;22.99
10606;BME280;5350;42.698;23.148;2023-07-13T12:48:05;93731.75;;;39.69;23.22
10606;BME280;5350;42.698;23.148;2023-07-13T12:50:37;93729.63;;;40.17;23.67
10606;BME280;5350;42.698;23.148;2023-07-13T12:53:13;93722.22;;;40.52;23.41
10606;BME280;5350;42.698;23.148;2023-07-13T12:55:41;93721.22;;;40.70;24.71
10606;BME280;5350;42.698;23.148;2023-07-13T12:58:17;93724.09;;;40.60;23.41
10606;BME280;5350;42.698;23.148;2023-07-13T13:00:48;93712.66;;;40.82;22.17
10606;BME280;5350;42.698;23.148;2023-07-13T13:03:22;93710.63;;;41.17;23.24
10606;BME280;5350;42.698;23.148;2023-07-13T13:05:57;93701.25;;;41.09;22.80
10606;BME280;5350;42.698;23.148;2023-07-13T13:08:25;93702.34;;;41.17;23.59
10606;BME280;5350;42.698;23.148;2023-07-13T13:10:52;93700.59;;;41.34;23.77
10606;BME280;5350;42.698;23.148;2023-07-13T13:13:21;93699.44;;;41.67;24.01
10606;BME280;5350;42.698;23.148;2023-07-13T13:15:47;93701.03;;;41.99;23.89
10606;BME280;5350;42.698;23.148;2023-07-13T13:18:16;93698.97;;;41.94;22.37
10606;BME280;5350;42.698;23.148;2023-07-13T13:20:43;93694.16;;;42.14;24.41
10606;BME280;5350;42.698;23.148;2023-07-13T13:23:11;93689.34;;;42.72;23.17
10606;BME280;5350;42.698;23.148;2023-07-13T13:25:39;93693.09;;;43.06;20.62
10606;BME280;5350;42.698;23.148;2023-07-13T13:28:13;93692.56;;;43.07;21.24
10606;BME280;5350;42.698;23.148;2023-07-13T13:30:42;93681.59;;;42.81;20.73
10606;BME280;5350;42.698;23.148;2023-07-13T13:33:11;93682.53;;;42.67;21.48
10606;BME280;5350;42.698;23.148;2023-07-13T13:35:38;93694.31;;;43.05;22.44
10606;BME280;5350;42.698;23.148;2023-07-13T13:38:10;93688.81;;;42.68;20.87